Time;durP1;ratioP1;P1;durP2;ratioP2;P2;SDS_P1;SDS_P2;PMS_P1;PMS_P2;Temp;Humidity;BMP_temperature;BMP_pressure;BME280_temperature;BME280_humidity;BME280_pressure;Samples;Min_cycle;Max_cycle;Signal;HPM_P1;HPM_P2
2022/09/28 00:01:50;;;;;;;6.20;4.05;;;7.70;99.90;;;;;;5032280;28;20045;-89
2022/09/28 00:04:16;;;;;;;8.00;4.95;;;7.70;99.90;;;;;;5002141;28;20044;-90
2022/09/28 00:06:42;;;;;;;5.90;4.72;;;7.70;99.90;;;;;;5000838;28;20044;-90
2022/09/28 00:09:08;;;;;;;11.00;5.60;;;8.20;99.90;;;;;;5000523;28;20127;-89
2022/09/28 00:11:34;;;;;;;11.82;7.13;;;7.70;99.90;;;;;;5017801;28;20037;-90
2022/09/28 00:14:06;;;;;;;12.68;6.20;;;7.80;99.90;;;;;;5018362;28;20395;-89
2022/09/28 00:16:38;;;;;;;9.53;5.93;;;7.80;99.90;;;;;;5020066;28;20076;-89
2022/09/28 00:19:05;;;;;;;9.63;5.75;;;7.80;99.90;;;;;;5015097;28;20053;-89
2022/09/28 00:21:34;;;;;;;10.18;5.47;;;7.90;99.90;;;;;;5017256;28;20116;-90
2022/09/28 00:24:22;;;;;;;10.18;5.40;;;8.10;99.90;;;;;;5032955;28;20073;-90
2022/09/28 00:26:53;;;;;;;8.52;5.57;;;7.90;99.90;;;;;;5033258;28;20056;-90
2022/09/28 00:29:18;;;;;;;8.60;6.43;;;7.90;99.90;;;;;;5018337;28;20044;-89
2022/09/28 00:31:44;;;;;;;10.77;5.60;;;8.30;99.90;;;;;;5031663;28;20091;-89
2022/09/28 00:34:11;;;;;;;8.18;5.80;;;7.90;99.90;;;;;;4983845;28;20147;-89
2022/09/28 00:36:36;;;;;;;8.98;6.40;;;7.90;99.90;;;;;;5015722;28;20041;-89
2022/09/28 00:39:05;;;;;;;11.32;6.65;;;7.90;99.90;;;;;;5000207;28;20079;-90
2022/09/28 00:41:31;;;;;;;12.00;5.75;;;8.50;99.90;;;;;;5033354;28;20492;-89
2022/09/28 00:44:36;;;;;;;6.78;5.82;;;7.80;99.90;;;;;;5014935;28;20033;-90
2022/09/28 00:47:18;;;;;;;9.02;5.97;;;7.80;99.90;;;;;;5032668;28;20131;-90
2022/09/28 00:49:48;;;;;;;8.85;5.80;;;7.80;99.90;;;;;;5014513;28;20052;-90
2022/09/28 00:52:39;;;;;;;11.13;7.05;;;7.80;99.90;;;;;;5017275;28;20049;-90
2022/09/28 00:55:10;;;;;;;8.80;6.15;;;7.80;99.90;;;;;;5023325;28;20119;-89
2022/09/28 00:57:39;;;;;;;9.85;6.43;;;7.70;99.90;;;;;;5029539;28;20519;-89
2022/09/28 01:00:06;;;;;;;10.90;5.93;;;7.70;99.90;;;;;;5033068;28;20063;-89
2022/09/28 01:02:31;;;;;;;8.90;6.10;;;7.70;99.90;;;;;;5031156;28;20103;-89
2022/09/28 01:04:59;;;;;;;13.18;7.03;;;7.70;99.90;;;;;;5014640;28;20408;-89
2022/09/28 01:07:25;;;;;;;9.77;6.68;;;7.70;99.90;;;;;;4999018;28;20055;-89
2022/09/28 01:09:52;;;;;;;9.73;6.47;;;7.70;99.90;;;;;;5029583;28;20057;-89
2022/09/28 01:12:19;;;;;;;8.13;6.78;;;7.70;99.90;;;;;;4982661;28;20048;-89
2022/09/28 01:14:45;;;;;;;9.95;6.53;;;7.60;99.90;;;;;;5012271;28;20044;-90
2022/09/28 01:17:19;;;;;;;9.98;6.00;;;7.60;99.90;;;;;;5031338;28;20090;-89
2022/09/28 01:19:50;;;;;;;;;;;7.50;99.90;;;;;;5029853;28;20045;-89
2022/09/28 01:22:32;;;;;;;9.30;5.60;;;7.50;99.90;;;;;;5029499;28;19921;-89
2022/09/28 01:25:04;;;;;;;6.97;5.95;;;7.50;99.90;;;;;;5030504;28;20045;-88
2022/09/28 01:27:50;;;;;;;12.82;6.70;;;7.50;99.90;;;;;;5012502;28;20393;-90
2022/09/28 01:30:18;;;;;;;9.75;6.90;;;7.60;99.90;;;;;;5013658;28;20511;-89
2022/09/28 01:33:07;;;;;;;9.07;6.38;;;7.40;99.90;;;;;;5029631;28;20496;-89
2022/09/28 01:35:42;;;;;;;10.85;6.10;;;7.40;99.90;;;;;;5028455;28;20087;-90
2022/09/28 01:38:13;;;;;;;10.80;6.78;;;7.30;99.90;;;;;;5013530;28;20049;-90
2022/09/28 01:40:40;;;;;;;9.55;7.05;;;7.30;99.90;;;;;;5028593;28;20053;-89
2022/09/28 01:43:16;;;;;;;11.95;6.32;;;7.30;99.90;;;;;;4980957;28;20045;-89
2022/09/28 01:45:45;;;;;;;8.30;6.38;;;7.30;99.90;;;;;;5029707;28;20044;-89
2022/09/28 01:48:16;;;;;;;12.48;6.85;;;7.20;99.90;;;;;;5028766;28;20040;-89
2022/09/28 01:50:45;;;;;;;8.93;6.78;;;7.20;99.90;;;;;;5029889;28;20080;-89
2022/09/28 01:53:22;;;;;;;12.25;6.97;;;7.20;99.90;;;;;;5011565;28;20037;-88
2022/09/28 01:55:53;;;;;;;13.00;6.78;;;7.10;99.90;;;;;;5030456;28;20048;-89
2022/09/28 01:58:36;;;;;;;12.43;6.80;;;7.10;99.90;;;;;;5028837;28;20041;-90
2022/09/28 02:01:31;;;;;;;10.90;6.72;;;7.00;99.90;;;;;;5028462;28;20041;-89
2022/09/28 02:04:06;;;;;;;11.52;7.50;;;7.00;99.90;;;;;;5028635;28;20061;-90
2022/09/28 02:06:45;;;;;;;10.77;6.25;;;7.70;99.90;;;;;;5012083;28;20111;-89
2022/09/28 02:09:21;;;;;;;9.52;6.05;;;8.00;99.90;;;;;;5017663;28;20049;-89
2022/09/28 02:11:53;;;;;;;9.45;7.10;;;8.00;99.90;;;;;;5044077;28;20125;-90
2022/09/28 02:14:20;;;;;;;10.05;6.13;;;8.20;99.90;;;;;;5042365;28;20048;-91
2022/09/28 02:16:53;;;;;;;7.82;5.97;;;6.90;99.90;;;;;;5054189;28;20377;-88
2022/09/28 02:19:22;;;;;;;8.50;6.93;;;6.90;99.90;;;;;;5014628;28;20037;-89
2022/09/28 02:21:58;;;;;;;10.25;6.50;;;6.90;99.90;;;;;;5019300;28;20040;-88
2022/09/28 02:24:51;;;;;;;10.20;7.32;;;7.00;99.90;;;;;;5035805;28;20060;-88
2022/09/28 02:27:31;;;;;;;11.13;7.50;;;7.00;99.90;;;;;;5018070;28;20080;-91
2022/09/28 02:29:57;;;;;;;19.00;8.60;;;7.00;99.90;;;;;;5035309;28;20052;-89
2022/09/28 02:32:24;;;;;;;13.38;8.55;;;7.00;99.90;;;;;;4998315;28;20033;-89
2022/09/28 02:34:49;;;;;;;12.07;8.77;;;7.90;99.90;;;;;;4999713;28;20480;-88
2022/09/28 02:37:15;;;;;;;11.18;7.75;;;7.80;99.90;;;;;;4998158;28;20052;-89
2022/09/28 02:39:41;;;;;;;14.10;9.38;;;8.30;99.90;;;;;;5012662;28;20067;-89
2022/09/28 02:42:42;;;;;;;11.00;8.25;;;8.40;99.90;;;;;;5014235;28;20136;-89
2022/09/28 02:45:21;;;;;;;12.57;9.00;;;7.20;99.90;;;;;;5024738;28;20056;-89
2022/09/28 02:48:04;;;;;;;13.90;9.65;;;7.20;99.90;;;;;;5029510;28;20099;-90
2022/09/28 02:50:55;;;;;;;13.85;9.20;;;7.20;99.90;;;;;;5029526;28;20106;-90
2022/09/28 02:53:26;;;;;;;13.25;8.43;;;7.20;99.90;;;;;;5011858;28;20408;-90
2022/09/28 02:56:12;;;;;;;14.43;9.55;;;7.20;99.90;;;;;;5013282;28;20092;-89
2022/09/28 02:58:55;;;;;;;13.30;8.05;;;7.30;99.90;;;;;;5029907;28;20547;-89
2022/09/28 03:01:38;;;;;;;17.33;10.05;;;7.30;99.90;;;;;;5031442;28;20131;-89
2022/09/28 03:04:22;;;;;;;12.73;9.47;;;7.30;99.90;;;;;;5033819;28;20115;-90
2022/09/28 03:07:08;;;;;;;14.20;8.27;;;7.30;99.90;;;;;;5040232;28;20048;-90
2022/09/28 03:09:46;;;;;;;16.77;9.25;;;7.30;99.90;;;;;;5042091;28;20049;-91
2022/09/28 03:12:16;;;;;;;10.95;8.20;;;7.30;99.90;;;;;;5041169;28;20087;-91
2022/09/28 03:14:41;;;;;;;11.88;9.10;;;7.20;99.90;;;;;;5030357;28;20627;-91
2022/09/28 03:17:07;;;;;;;12.15;8.48;;;7.20;99.90;;;;;;4998562;28;20073;-91
2022/09/28 03:19:35;;;;;;;11.23;8.40;;;7.10;99.90;;;;;;5014199;28;20047;-90
2022/09/28 03:22:01;;;;;;;11.40;8.73;;;7.10;99.90;;;;;;5017314;28;20136;-91
2022/09/28 03:24:26;;;;;;;13.98;8.55;;;7.10;99.90;;;;;;5014974;28;20073;-90
2022/09/28 03:26:52;;;;;;;13.55;8.57;;;7.90;99.90;;;;;;5019364;28;20187;-90
2022/09/28 03:29:20;;;;;;;16.83;10.20;;;6.90;99.90;;;;;;5052704;28;20048;-89
2022/09/28 03:31:47;;;;;;;16.63;9.63;;;7.10;99.90;;;;;;5036025;28;20053;-90
2022/09/28 03:34:13;;;;;;;13.10;9.25;;;6.90;99.90;;;;;;5052978;28;20071;-90
2022/09/28 03:36:39;;;;;;;23.17;10.20;;;6.90;99.90;;;;;;5035596;28;20037;-90
2022/09/28 03:39:04;;;;;;;17.23;10.48;;;6.80;99.90;;;;;;5056152;28;20044;-89
2022/09/28 03:41:30;;;;;;;13.60;9.52;;;6.90;99.90;;;;;;5037948;28;20057;-90
2022/09/28 03:43:56;;;;;;;14.63;9.55;;;7.30;99.90;;;;;;5034575;28;20033;-90
2022/09/28 03:46:21;;;;;;;14.77;9.38;;;8.00;99.90;;;;;;5016948;28;20068;-90
2022/09/28 03:48:47;;;;;;;18.23;9.95;;;8.00;99.90;;;;;;5015030;28;20099;-90
2022/09/28 03:51:13;;;;;;;10.32;8.27;;;7.30;99.90;;;;;;5024372;28;20036;-90
2022/09/28 03:53:39;;;;;;;9.52;7.85;;;6.70;99.90;;;;;;4985277;28;20080;-90
2022/09/28 03:56:09;;;;;;;9.18;6.63;;;7.80;99.90;;;;;;5002161;28;20041;-90
2022/09/28 03:58:35;;;;;;;8.05;6.68;;;6.60;99.90;;;;;;5016704;28;20137;-90
2022/09/28 04:01:07;;;;;;;21.17;6.43;;;6.50;99.90;;;;;;5033493;28;20732;-90
2022/09/28 04:03:33;;;;;;;31.95;7.75;;;6.60;99.90;;;;;;5035516;28;20542;-90
2022/09/28 04:05:59;;;;;;;10.82;7.25;;;6.50;99.90;;;;;;5032189;28;20048;-90
2022/09/28 04:08:25;;;;;;;44.75;10.48;;;6.40;99.90;;;;;;5016028;28;20515;-88
2022/09/28 04:10:51;;;;;;;78.05;12.02;;;6.50;99.90;;;;;;5030692;28;20052;-90
2022/09/28 04:13:17;;;;;;;95.32;12.43;;;6.50;99.90;;;;;;4982744;28;20041;-90
2022/09/28 04:15:51;;;;;;;93.93;12.50;;;6.60;99.90;;;;;;5030811;28;20653;-90
2022/09/28 04:18:17;;;;;;;81.25;11.55;;;6.70;99.90;;;;;;4997660;28;20071;-90
2022/09/28 04:20:44;;;;;;;31.40;9.07;;;6.70;99.90;;;;;;5031392;28;20041;-89
2022/09/28 04:23:11;;;;;;;49.42;10.20;;;6.70;99.90;;;;;;5013462;28;20051;-91
2022/09/28 04:25:38;;;;;;;96.43;12.00;;;6.80;99.90;;;;;;5015464;28;20084;-90
2022/09/28 04:30:48;;;;;;;44.78;9.73;;;6.80;99.90;;;;;;5031347;28;20052;-90
2022/09/28 04:33:14;;;;;;;31.30;9.65;;;6.90;99.90;;;;;;5014793;28;20033;-89
2022/09/28 04:35:40;;;;;;;37.67;9.85;;;6.90;99.90;;;;;;5029852;28;20041;-90
2022/09/28 04:38:05;;;;;;;50.85;9.68;;;6.90;99.90;;;;;;5027650;28;20131;-88
2022/09/28 04:40:31;;;;;;;45.70;10.25;;;6.80;99.90;;;;;;4994007;28;20152;-89
2022/09/28 04:42:57;;;;;;;49.10;10.40;;;6.80;99.90;;;;;;5011619;28;20124;-90
2022/09/28 04:45:27;;;;;;;53.47;9.30;;;6.80;99.90;;;;;;5027303;28;20037;-90
2022/09/28 04:47:53;;;;;;;44.00;9.20;;;6.90;99.90;;;;;;5028180;28;20191;-92
2022/09/28 04:50:19;;;;;;;46.72;9.63;;;6.80;99.90;;;;;;4995596;28;20045;-95
2022/09/28 04:52:45;;;;;;;41.70;9.45;;;5.60;99.90;;;;;;5011060;28;20041;-95
2022/09/28 04:55:14;;;;;;;43.72;8.77;;;7.80;99.90;;;;;;5013567;28;20053;-89
2022/09/28 04:57:40;;;;;;;30.20;8.57;;;6.80;99.90;;;;;;5010003;28;20048;-91
2022/09/28 05:00:06;;;;;;;13.45;8.15;;;6.80;99.90;;;;;;5015357;28;20045;-95
2022/09/28 05:02:32;;;;;;;19.60;7.55;;;6.80;99.90;;;;;;5033172;28;20045;-95
2022/09/28 05:04:59;;;;;;;14.45;7.63;;;6.80;99.90;;;;;;5001659;28;20053;-94
2022/09/28 05:07:25;;;;;;;26.20;8.57;;;7.80;99.90;;;;;;5015563;28;20042;-94
2022/09/28 05:09:52;;;;;;;17.85;8.13;;;6.80;99.90;;;;;;5023454;28;20049;-96
2022/09/28 05:12:19;;;;;;;12.70;7.15;;;7.70;99.90;;;;;;5019911;28;20045;-96
2022/09/28 05:14:45;;;;;;;12.88;9.10;;;6.70;99.90;;;;;;4999737;28;20235;-93
2022/09/28 05:17:13;;;;;;;11.75;7.80;;;6.80;99.90;;;;;;5012913;28;20511;-89
2022/09/28 05:19:39;;;;;;;11.57;8.52;;;6.70;99.90;;;;;;5000664;28;20053;-95
2022/09/28 05:22:10;;;;;;;14.85;8.75;;;7.50;99.90;;;;;;5012081;28;20037;-96
2022/09/28 05:24:36;;;;;;;15.32;8.10;;;6.70;99.90;;;;;;5005601;28;20050;-96
2022/09/28 05:27:01;;;;;;;15.70;7.95;;;7.80;99.90;;;;;;5049043;28;20308;-95
2022/09/28 05:29:27;;;;;;;10.18;7.65;;;6.80;99.90;;;;;;5028239;28;20046;-96
2022/09/28 05:31:53;;;;;;;11.70;7.80;;;7.50;99.90;;;;;;5027266;28;20056;-95
2022/09/28 05:34:18;;;;;;;11.13;7.68;;;7.30;99.90;;;;;;4999264;28;20041;-92
2022/09/28 05:36:44;;;;;;;9.80;7.18;;;6.60;99.90;;;;;;5012466;28;20041;-94
2022/09/28 05:39:10;;;;;;;13.77;7.45;;;7.90;99.90;;;;;;5014347;28;20061;-88
2022/09/28 05:41:36;;;;;;;9.32;6.80;;;6.80;99.90;;;;;;5009030;28;20059;-92
2022/09/28 05:44:02;;;;;;;10.68;7.22;;;6.60;99.90;;;;;;5012277;28;20133;-90
2022/09/28 05:46:28;;;;;;;10.65;6.78;;;6.60;99.90;;;;;;5011039;28;20045;-94
2022/09/28 05:48:53;;;;;;;11.23;7.53;;;6.50;99.90;;;;;;4993604;28;20049;-88
2022/09/28 05:51:20;;;;;;;8.77;6.55;;;6.50;99.90;;;;;;5010398;28;20049;-87
2022/09/28 05:53:45;;;;;;;11.07;6.63;;;6.40;99.90;;;;;;5009068;28;20404;-91
2022/09/28 05:56:11;;;;;;;9.90;6.32;;;6.40;99.90;;;;;;4994967;28;20056;-89
2022/09/28 05:58:37;;;;;;;9.10;6.75;;;7.60;99.90;;;;;;5012353;28;20100;-94
2022/09/28 06:01:03;;;;;;;10.70;6.93;;;6.40;99.90;;;;;;5002324;28;20053;-96
2022/09/28 06:03:29;;;;;;;11.10;6.75;;;6.40;99.90;;;;;;5002897;28;20124;-94
2022/09/28 06:05:55;;;;;;;10.85;7.10;;;6.40;99.90;;;;;;4988786;28;20057;-96
2022/09/28 06:08:22;;;;;;;13.05;7.28;;;7.20;99.90;;;;;;5002706;28;20056;-95
2022/09/28 06:10:51;;;;;;;18.27;8.32;;;6.40;99.90;;;;;;5004173;28;20077;-94
2022/09/28 06:13:20;;;;;;;10.45;7.28;;;6.40;99.90;;;;;;5001758;28;20052;-96
2022/09/28 06:15:47;;;;;;;15.82;8.77;;;6.40;99.90;;;;;;4981829;28;20038;-95
2022/09/28 06:18:13;;;;;;;11.93;8.15;;;6.50;99.90;;;;;;4985823;28;20041;-94
2022/09/28 06:20:40;;;;;;;17.02;8.85;;;7.00;99.90;;;;;;5013022;28;20048;-95
2022/09/28 06:23:07;;;;;;;16.77;9.35;;;7.20;99.90;;;;;;5016330;28;20405;-96
2022/09/28 06:25:32;;;;;;;13.35;8.95;;;6.70;99.90;;;;;;4983752;28;20049;-96
2022/09/28 06:28:02;;;;;;;19.48;10.02;;;6.70;99.90;;;;;;4986840;28;20075;-95
2022/09/28 06:30:30;;;;;;;14.65;9.77;;;6.80;99.90;;;;;;5017686;28;20381;-94
2022/09/28 06:32:58;;;;;;;13.90;8.82;;;6.80;99.90;;;;;;4989237;28;20099;-95
2022/09/28 06:35:26;;;;;;;14.88;9.65;;;6.90;99.90;;;;;;5021606;28;20049;-95
2022/09/28 06:37:52;;;;;;;18.25;10.48;;;6.90;99.90;;;;;;5024220;28;20057;-94
2022/09/28 06:40:19;;;;;;;25.50;10.65;;;7.10;99.90;;;;;;5031452;28;20087;-96
2022/09/28 06:42:58;;;;;;;15.07;10.20;;;7.60;99.90;;;;;;5012694;28;20183;-95
2022/09/28 06:45:25;;;;;;;16.08;10.43;;;7.10;99.90;;;;;;5063475;28;20087;-95
2022/09/28 06:47:56;;;;;;;19.48;11.07;;;7.10;99.90;;;;;;5007605;28;20535;-95
2022/09/28 06:50:29;;;;;;;15.95;9.77;;;7.20;99.90;;;;;;5004937;28;20047;-96
2022/09/28 06:52:56;;;;;;;13.23;9.40;;;7.30;99.90;;;;;;5008767;28;20475;-95
2022/09/28 06:55:23;;;;;;;15.88;10.63;;;7.30;99.90;;;;;;4989780;28;20080;-95
2022/09/28 06:58:09;;;;;;;13.80;9.77;;;8.10;99.90;;;;;;5005988;28;20048;-95
2022/09/28 07:00:38;;;;;;;17.15;9.95;;;7.40;99.90;;;;;;4964995;28;20056;-96
2022/09/28 07:03:09;;;;;;;14.27;10.30;;;7.50;99.90;;;;;;4932991;28;20106;-95
2022/09/28 07:05:36;;;;;;;15.07;10.15;;;7.30;99.90;;;;;;4966694;28;20058;-96
2022/09/28 07:08:06;;;;;;;13.40;9.65;;;7.60;99.90;;;;;;4980133;28;20058;-96
2022/09/28 07:10:48;;;;;;;14.77;10.20;;;8.90;99.90;;;;;;4963014;28;20054;-95
2022/09/28 07:13:14;;;;;;;;;;;7.80;99.90;;;;;;4967039;28;20145;-94
2022/09/28 07:15:41;;;;;;;17.92;10.25;;;8.20;99.90;;;;;;4967509;28;19922;-94
2022/09/28 07:18:07;;;;;;;13.55;8.95;;;8.60;99.90;;;;;;4962194;28;20102;-94
2022/09/28 07:20:34;;;;;;;11.38;9.43;;;8.00;99.90;;;;;;4973888;28;20068;-95
2022/09/28 07:23:02;;;;;;;15.32;10.13;;;8.60;99.90;;;;;;4970025;28;20079;-96
2022/09/28 07:25:30;;;;;;;15.10;9.27;;;8.10;99.90;;;;;;4955715;28;20082;-96
2022/09/28 07:27:58;;;;;;;11.50;8.50;;;8.20;99.90;;;;;;4962337;28;20038;-96
2022/09/28 07:30:26;;;;;;;14.15;9.30;;;7.40;99.90;;;;;;4956656;28;20042;-95
2022/09/28 07:32:52;;;;;;;14.80;8.50;;;8.30;99.90;;;;;;5012980;28;20886;-96
2022/09/28 07:35:18;;;;;;;12.63;9.63;;;8.60;99.90;;;;;;5011673;28;20187;-96
2022/09/28 07:37:44;;;;;;;11.75;8.38;;;9.70;99.90;;;;;;5009690;28;20040;-96
2022/09/28 07:42:55;;;;;;;11.57;7.32;;;8.70;99.90;;;;;;5036521;28;20134;-96
2022/09/28 07:45:24;;;;;;;10.20;7.57;;;9.80;99.90;;;;;;4983874;28;20127;-96
2022/09/28 07:47:54;;;;;;;9.35;7.18;;;8.90;99.90;;;;;;5002515;28;20048;-96
2022/09/28 07:50:21;;;;;;;12.15;6.80;;;9.00;99.90;;;;;;5001984;28;20049;-96
2022/09/28 07:52:48;;;;;;;12.82;7.47;;;10.00;99.90;;;;;;5016318;28;20044;-96
2022/09/28 07:55:14;;;;;;;10.75;6.05;;;9.60;99.90;;;;;;5017301;28;20049;-96
2022/09/28 07:57:40;;;;;;;8.02;6.57;;;9.40;99.90;;;;;;5016702;28;20048;-96
2022/09/28 08:00:07;;;;;;;9.30;7.00;;;9.40;99.90;;;;;;5018062;28;20056;-96
2022/09/28 08:02:35;;;;;;;10.77;7.07;;;9.50;99.90;;;;;;5003057;28;20045;-96
2022/09/28 08:05:01;;;;;;;8.85;6.85;;;9.60;99.90;;;;;;5020256;28;20045;-96
2022/09/28 08:07:28;;;;;;;10.20;6.00;;;10.20;99.90;;;;;;5004036;28;20523;-95
2022/09/28 08:09:54;;;;;;;7.55;6.40;;;10.30;99.90;;;;;;5018567;28;20041;-95
2022/09/28 08:12:20;;;;;;;8.27;6.43;;;9.90;99.90;;;;;;5004492;28;20037;-96
2022/09/28 08:14:48;;;;;;;10.23;6.68;;;9.60;99.90;;;;;;5004513;28;20036;-96
2022/09/28 08:17:16;;;;;;;9.25;6.90;;;10.10;99.90;;;;;;5043700;28;20037;-96
2022/09/28 08:22:30;;;;;;;11.57;7.32;;;10.80;99.90;;;;;;5041357;28;20049;-96
2022/09/28 08:24:57;;;;;;;9.43;7.20;;;10.50;99.90;;;;;;5011361;28;20065;-96
2022/09/28 08:27:22;;;;;;;10.35;6.43;;;9.80;99.90;;;;;;5005297;28;20037;-95
2022/09/28 08:29:48;;;;;;;9.13;6.15;;;10.60;99.90;;;;;;5006670;28;20085;-95
2022/09/28 08:32:15;;;;;;;8.30;6.05;;;11.70;99.90;;;;;;5017231;28;20115;-95
2022/09/28 08:34:41;;;;;;;7.85;5.95;;;10.80;99.90;;;;;;4985217;28;20130;-96
2022/09/28 08:37:11;;;;;;;6.75;5.70;;;11.30;99.90;;;;;;4999332;28;20045;-95
2022/09/28 08:39:37;;;;;;;7.07;5.55;;;11.10;99.90;;;;;;5000298;28;20060;-95
2022/09/28 08:42:39;;;;;;;6.55;5.60;;;12.00;99.90;;;;;;4998961;28;20049;-95
2022/09/28 08:45:14;;;;;;;10.80;5.15;;;11.10;99.90;;;;;;5014666;28;20036;-94
2022/09/28 08:50:50;;;;;;;7.13;5.88;;;11.20;99.90;;;;;;5031687;28;20144;-94
2022/09/28 08:53:35;;;;;;;7.65;5.82;;;11.30;99.90;;;;;;5014549;28;20052;-93
2022/09/28 08:56:10;;;;;;;7.53;4.95;;;11.70;99.90;;;;;;5015529;28;20045;-92
2022/09/28 08:58:44;;;;;;;5.35;4.85;;;11.40;99.90;;;;;;5014866;28;20514;-92
2022/09/28 09:01:15;;;;;;;5.68;4.90;;;12.30;99.90;;;;;;5014626;28;20045;-94
2022/09/28 09:03:44;;;;;;;7.07;5.30;;;11.50;99.90;;;;;;5014355;28;20071;-90
2022/09/28 09:06:30;;;;;;;10.65;5.63;;;11.50;99.90;;;;;;5014078;28;20535;-91
2022/09/28 09:09:02;;;;;;;8.30;5.65;;;11.60;99.90;;;;;;5014940;28;20480;-91
2022/09/28 09:11:57;;;;;;;7.68;5.25;;;11.70;99.90;;;;;;5013399;28;20041;-91
2022/09/28 09:14:52;;;;;;;8.77;4.75;;;11.80;99.90;;;;;;5013213;28;20048;-90
2022/09/28 09:17:47;;;;;;;7.57;4.88;;;11.90;99.90;;;;;;5013784;28;20055;-86
2022/09/28 09:20:32;;;;;;;9.32;5.32;;;12.00;99.90;;;;;;4975066;28;20152;-87
2022/09/28 09:23:00;;;;;;;9.38;5.03;;;12.10;99.90;;;;;;5012144;28;20041;-85
2022/09/28 09:25:43;;;;;;;7.63;4.50;;;12.20;99.90;;;;;;5028866;28;20086;-84
2022/09/28 09:28:42;;;;;;;15.07;5.57;;;12.30;99.90;;;;;;5028260;28;20090;-84
2022/09/28 09:31:21;;;;;;;11.48;5.45;;;12.50;99.90;;;;;;5028753;28;20049;-85
2022/09/28 09:34:23;;;;;;;6.72;4.82;;;12.60;99.90;;;;;;5012114;28;20090;-85
2022/09/28 09:37:00;;;;;;;4.55;2.92;;;12.70;99.90;;;;;;4997317;28;20057;-86
2022/09/28 09:40:05;;;;;;;5.75;3.42;;;12.80;99.90;;;;;;5012383;28;20064;-85
2022/09/28 09:42:46;;;;;;;3.50;3.10;;;12.80;99.90;;;;;;4998903;28;20499;-86
2022/09/28 09:45:45;;;;;;;10.40;3.30;;;13.00;99.90;;;;;;5011357;28;20045;-85
2022/09/28 09:48:45;;;;;;;4.05;2.17;;;13.20;99.90;;;;;;5030401;28;20048;-93
2022/09/28 09:51:44;;;;;;;5.18;1.80;;;13.30;99.90;;;;;;5013651;28;20113;-95
2022/09/28 09:54:22;;;;;;;4.68;1.92;;;13.40;99.90;;;;;;5013255;28;20108;-93
2022/09/28 09:56:56;;;;;;;3.33;1.55;;;13.50;99.90;;;;;;5014417;28;20384;-93
2022/09/28 09:59:32;;;;;;;7.22;1.50;;;13.60;99.90;;;;;;5013986;28;20059;-92
2022/09/28 10:02:14;;;;;;;2.55;1.02;;;13.50;99.90;;;;;;5012688;28;20110;-92
2022/09/28 10:04:45;;;;;;;5.43;1.45;;;13.50;99.90;;;;;;5013877;28;20045;-92
2022/09/28 10:07:19;;;;;;;3.25;1.15;;;13.50;99.90;;;;;;5012840;28;20134;-95
2022/09/28 10:09:47;;;;;;;2.38;1.20;;;13.50;99.90;;;;;;5014537;28;20837;-94
2022/09/28 10:12:18;;;;;;;2.80;0.93;;;13.60;99.90;;;;;;4997258;28;20045;-93
2022/09/28 10:14:45;;;;;;;4.47;0.70;;;13.80;99.90;;;;;;5013272;28;20496;-93
2022/09/28 10:17:15;;;;;;;4.20;1.10;;;14.00;99.90;;;;;;4981538;28;20064;-94
2022/09/28 10:19:42;;;;;;;1.55;0.95;;;14.10;99.90;;;;;;5013162;28;20095;-92
2022/09/28 10:22:15;;;;;;;2.20;0.82;;;14.10;99.90;;;;;;4997301;28;20574;-94
2022/09/28 10:24:55;;;;;;;3.58;1.30;;;14.10;99.90;;;;;;5013420;28;20045;-94
2022/09/28 10:27:30;;;;;;;3.08;0.70;;;14.00;99.90;;;;;;4997241;28;20044;-94
2022/09/28 10:30:13;;;;;;;1.73;0.40;;;14.00;99.90;;;;;;5013210;28;20045;-93
2022/09/28 10:32:44;;;;;;;4.38;0.55;;;13.90;99.90;;;;;;5012982;28;20139;-94
2022/09/28 10:35:25;;;;;;;2.80;0.40;;;13.90;99.90;;;;;;4998057;28;20561;-94
2022/09/28 10:38:09;;;;;;;2.28;0.50;;;13.90;99.90;;;;;;5012807;28;20067;-94
2022/09/28 10:40:53;;;;;;;2.38;0.60;;;13.80;99.90;;;;;;5013108;28;20049;-94
2022/09/28 10:43:27;;;;;;;4.80;1.08;;;13.80;99.90;;;;;;5013959;28;20056;-93
2022/09/28 10:46:21;;;;;;;6.68;0.28;;;13.80;99.90;;;;;;5013061;28;20095;-94
2022/09/28 10:48:51;;;;;;;1.15;0.20;;;13.80;99.90;;;;;;5014387;28;20056;-94
2022/09/28 10:51:17;;;;;;;1.08;0.20;;;13.90;99.90;;;;;;5016812;28;20064;-91
2022/09/28 10:53:59;;;;;;;1.45;0.30;;;13.90;99.90;;;;;;4984924;28;20076;-96
2022/09/28 10:56:34;;;;;;;3.63;0.20;;;14.90;99.90;;;;;;5023988;28;20041;-96
2022/09/28 10:59:00;;;;;;;4.80;0.83;;;14.50;99.90;;;;;;5021461;28;20045;-95
2022/09/28 11:01:33;;;;;;;1.15;0.30;;;14.00;99.90;;;;;;4986651;28;20456;-96
2022/09/28 11:04:03;;;;;;;0.75;0.20;;;14.00;99.90;;;;;;5017038;28;20044;-92
2022/09/28 11:06:37;;;;;;;1.85;1.00;;;14.00;99.90;;;;;;5016274;28;20199;-92
2022/09/28 11:09:06;;;;;;;7.03;2.63;;;14.30;99.90;;;;;;5016893;28;20530;-93
2022/09/28 11:11:42;;;;;;;1.35;0.20;;;13.90;99.90;;;;;;5015990;28;20041;-91
2022/09/28 11:14:35;;;;;;;3.63;0.30;;;13.90;99.90;;;;;;5033059;28;20369;-91
2022/09/28 11:17:31;;;;;;;0.90;0.15;;;14.10;99.90;;;;;;5007920;28;20420;-91
2022/09/28 11:20:20;;;;;;;0.60;0.20;;;13.80;99.90;;;;;;5015864;28;20056;-93
2022/09/28 11:22:47;;;;;;;4.05;0.20;;;13.80;99.90;;;;;;5016854;28;20045;-91
2022/09/28 11:25:19;;;;;;;3.50;0.40;;;13.90;99.90;;;;;;4983583;28;20041;-90
2022/09/28 11:27:50;;;;;;;1.40;0.10;;;13.90;99.90;;;;;;5016013;28;20447;-92
2022/09/28 11:30:31;;;;;;;0.98;0.30;;;14.00;99.90;;;;;;5016135;28;20048;-91
2022/09/28 11:33:16;;;;;;;2.42;0.30;;;14.00;99.90;;;;;;5016172;28;20438;-90
2022/09/28 11:36:12;;;;;;;2.38;0.30;;;14.10;99.90;;;;;;5016099;28;20041;-92
2022/09/28 11:38:56;;;;;;;1.55;0.30;;;14.10;99.90;;;;;;5015687;28;20057;-93
2022/09/28 11:41:43;;;;;;;1.50;0.30;;;14.20;99.90;;;;;;5014843;28;20060;-91
2022/09/28 11:44:27;;;;;;;0.25;0.13;;;14.30;99.90;;;;;;5015831;28;20562;-90
2022/09/28 11:47:03;;;;;;;1.15;0.10;;;14.40;99.90;;;;;;5016675;28;20044;-92
2022/09/28 11:49:56;;;;;;;0.65;0.30;;;14.50;99.90;;;;;;5017421;28;20045;-90
2022/09/28 11:52:28;;;;;;;1.23;0.23;;;14.50;99.90;;;;;;4983228;28;20497;-94
2022/09/28 11:55:15;;;;;;;1.23;0.17;;;14.40;99.90;;;;;;5015275;28;20295;-87
2022/09/28 11:57:44;;;;;;;1.50;0.20;;;14.40;99.90;;;;;;5014713;28;20488;-89
2022/09/28 12:00:17;;;;;;;0.13;0.10;;;14.70;99.90;;;;;;5014731;28;20044;-89
2022/09/28 12:02:45;;;;;;;0.20;0.10;;;14.20;99.90;;;;;;5014513;28;20044;-88
2022/09/28 12:05:35;;;;;;;1.00;0.22;;;13.80;99.90;;;;;;5049798;28;20568;-90
2022/09/28 12:08:17;;;;;;;0.20;0.10;;;14.10;99.90;;;;;;5015437;28;20080;-92
2022/09/28 12:10:43;;;;;;;0.85;0.25;;;14.10;99.90;;;;;;5014474;28;20052;-89
2022/09/28 12:13:13;;;;;;;1.02;0.20;;;14.10;99.90;;;;;;5014842;28;20037;-89
2022/09/28 12:15:48;;;;;;;1.85;0.17;;;14.00;99.90;;;;;;5031156;28;20037;-88
2022/09/28 12:18:24;;;;;;;1.40;0.40;;;14.10;99.90;;;;;;5030750;28;20535;-87
2022/09/28 12:21:41;;;;;;;0.65;0.20;;;14.10;99.90;;;;;;5031315;28;20067;-87
2022/09/28 12:24:31;;;;;;;0.65;0.28;;;14.10;99.90;;;;;;4983451;28;20059;-90
2022/09/28 12:27:08;;;;;;;0.43;0.15;;;14.20;99.90;;;;;;5034671;28;20053;-94
2022/09/28 12:29:41;;;;;;;0.50;0.10;;;14.40;99.90;;;;;;5035783;28;20033;-92
2022/09/28 12:32:22;;;;;;;1.35;0.20;;;14.20;99.90;;;;;;5029158;28;20044;-90
2022/09/28 12:34:47;;;;;;;0.55;0.08;;;14.20;99.90;;;;;;5028013;28;20037;-95
2022/09/28 12:37:23;;;;;;;0.85;0.00;;;14.10;99.90;;;;;;5013427;28;20044;-94
2022/09/28 12:40:21;;;;;;;0.63;0.10;;;14.00;99.90;;;;;;5023991;28;20138;-94
2022/09/28 12:43:09;;;;;;;2.05;0.30;;;14.00;99.90;;;;;;5031539;28;20046;-94
2022/09/28 12:46:06;;;;;;;1.00;0.10;;;13.90;99.90;;;;;;5038348;28;20037;-94
2022/09/28 12:48:47;;;;;;;1.15;0.13;;;13.80;99.90;;;;;;5036154;28;20462;-96
2022/09/28 12:51:31;;;;;;;0.10;0.00;;;13.70;99.90;;;;;;5021138;28;20613;-93
2022/09/28 12:54:39;;;;;;;0.80;0.20;;;13.60;99.90;;;;;;5047344;28;20031;-95
2022/09/28 12:57:28;;;;;;;0.10;0.00;;;13.50;99.90;;;;;;5011385;28;20056;-92
2022/09/28 13:00:07;;;;;;;0.45;0.10;;;13.40;99.90;;;;;;5035539;28;20033;-93
2022/09/28 13:02:39;;;;;;;1.00;0.10;;;13.30;99.90;;;;;;5038477;28;20096;-93
2022/09/28 13:05:17;;;;;;;1.73;0.10;;;13.30;99.90;;;;;;5039031;28;20033;-93
2022/09/28 13:08:08;;;;;;;1.95;0.10;;;13.10;99.90;;;;;;5038022;28;20029;-92
2022/09/28 13:11:15;;;;;;;2.25;0.15;;;13.00;99.90;;;;;;5031624;28;20104;-93
2022/09/28 13:13:40;;;;;;;0.10;0.03;;;13.00;99.90;;;;;;5020117;28;20064;-93
2022/09/28 13:16:12;;;;;;;0.70;0.10;;;13.00;99.90;;;;;;5037955;28;20041;-93
2022/09/28 13:18:56;;;;;;;0.30;0.10;;;13.10;99.90;;;;;;5038304;28;20036;-92
2022/09/28 13:21:27;;;;;;;2.28;0.10;;;13.50;99.90;;;;;;5037670;28;20041;-90
2022/09/28 13:23:57;;;;;;;0.63;0.15;;;13.40;99.90;;;;;;5034212;28;20041;-93
2022/09/28 13:26:35;;;;;;;3.55;0.65;;;13.60;99.90;;;;;;5025419;28;20049;-91
2022/09/28 13:29:12;;;;;;;0.73;0.22;;;14.30;99.90;;;;;;5024588;28;20194;-91
2022/09/28 13:31:45;;;;;;;1.35;0.20;;;14.20;99.90;;;;;;5025981;28;20049;-91